Dry Creek, Louisiana
Current Conditions -  °F | °C
As of 1:15 PM on Sunday 21 Dec 2014 (Local Time) from KDRI Reporting Station
Haze Haze  
Wind Chill: 48°   Ceiling: 400
Heat Index: 49°   Visibility: 5mi
Dew Point: 47°   Wind: 5mph
Humidity: 93%   Direction: 200°SSW
Pressure: 30.07"   Gusts: NA
Location:  30.67°N, 93.05°W
Report Text: KDRI 211915Z AUTO 20004KT 5SM BR OVC004 10/09 A3007 RMK AO2 T00960085
Loading
Personal Weather Stations






























Interactive Weather Map New forecast layout! Learn more

10-Day Weather Forecast

Advertisements
Track Severe Weather on mobile